Bookmark and Share
Track history (hours):
 

Oceanographic research ship Oscar Dyson (USA)

Ship's website: http://www.moc.noaa.gov/od/

Detailed information on ship capabilities available from University of Delaware's Ocean Information Center and ARCUS's ALIAS (Arctic Logistics Information and Support) project.

Last reported at 2014-Apr-17 03:00 UTC. Time now 2014-Apr-17 03:52 UTC.
Position N 60°30' W 176°54'.

Type: Ship. MMSI: 369959000.

Wind from 050 at 12 knots

Waves 0.5 meters (2 feet), 1 second period

Barometer 1007.2 mb
Air temperature 0.2 ° C
Visibility: greater than 5.4 NM
Dewpoint -0.8 ° C
Water temperature -1.6 ° C

NotesDate/timePositionNaut miles runAvg speedWind from/ knotsBaromVisibWave heightAir tempDewpointWater temp
2014-Apr-17 03:00N 60°30' W 176°54'0 0.0 050 / 121007.2 5.4 0.5 0.2-0.8-1.6
2014-Apr-17 01:00N 60°30' W 176°54'7 6.7 050 / 131006.8 -1.1-1.4-1.5
2014-Apr-17 00:00N 60°24' W 176°48'7 3.3 050 / 121006.8 0.3 3.0 0.6-1.5
2014-Apr-16 22:00N 60°30' W 176°42'0 0.0 060 / 131006.6 -0.9-1.2-1.6
2014-Apr-16 20:00N 60°30' W 176°42'0 0.0 060 / 131005.8 -1.1-1.4-1.6
2014-Apr-16 19:00N 60°30' W 176°42'3 3.0 070 / 151005.2 -1.2-1.4-1.4
2014-Apr-16 18:00N 60°30' W 176°36'0 0.0 070 / 161004.7 -1.2-1.5-1.4
2014-Apr-16 17:00N 60°30' W 176°36'0 0.0 060 / 181004.2 -0.9-1.2-1.4
2014-Apr-16 16:00N 60°30' W 176°36'8 2.1 060 / 191003.6 -1.3-1.4-1.4
2014-Apr-16 12:00N 60°24' W 176°24'7 6.7 070 / 221001.8 2.2 0.5 0.5-0.7-1.6
2014-Apr-16 11:00N 60°30' W 176°30'3 3.0 060 / 181001.4 -1.1-1.4-1.4
2014-Apr-16 10:00N 60°30' W 176°24'6 6.0 070 / 191001.0 -1.1-1.4-1.4
2014-Apr-16 09:00N 60°24' W 176°24'6 3.0 060 / 201000.6 2.235.0-0.9-1.2-1.4
2014-Apr-16 07:00N 60°30' W 176°24'3 0.7 060 / 20999.8 -0.8-1.3-1.4
2014-Apr-16 03:00N 60°30' W 176°18'7 6.7 080 / 14998.4 -0.3-1.0-1.6
2014-Apr-16 02:00N 60°24' W 176°12'0 0.0 080 / 20997.9 -0.4-1.1-1.7
2014-Apr-16 01:00N 60°24' W 176°12'3 3.0 090 / 21997.6 -0.3-1.0-1.6
2014-Apr-16 00:00N 60°24' W 176°06'0 0.0 090 / 21997.5 -0.3-1.0-1.6
2014-Apr-15 22:00N 60°24' W 176°06'3 3.0 080 / 19997.5 -0.5-0.9-1.6
2014-Apr-15 21:00N 60°24' W 176°00'6 3.0 070 / 18997.4 -0.6-1.0-1.6
2014-Apr-15 19:00N 60°18' W 176°00'6 3.0 090 / 21997.4 -1.4-2.0-1.6
2014-Apr-15 17:00N 60°12' W 176°00'0 0.0 080 / 25997.0 -1.6-2.4-1.6
2014-Apr-15 16:00N 60°12' W 176°00'3 3.0 070 / 21997.6 -1.6-2.4-1.4
2014-Apr-15 15:00N 60°12' W 176°06'6 6.0 080 / 24997.9 -1.9-3.0-1.3
2014-Apr-15 14:00N 60°12' W 176°18'16 3.2 080 / 24998.1 -1.9-3.3-1.4
2014-Apr-15 09:00N 60°18' W 176°48'6 5.9 100 / 20998.1 5.4 0.5-0.7-1.5-1.4
2014-Apr-15 08:00N 60°18' W 177°00'6 6.0 100 / 20998.4 -0.6-1.3-1.4
2014-Apr-15 07:00N 60°24' W 177°00'0 0.0 100 / 22997.8 -0.7-1.4-1.5
2014-Apr-15 06:00N 60°24' W 177°00'0 0.0 110 / 22997.9 -0.6-1.4-1.4
2014-Apr-15 05:00N 60°24' W 177°00'0 0.0 100 / 20997.6 -0.2-1.0-1.3
2014-Apr-15 04:00N 60°24' W 177°00'0 0.0 100 / 17997.8 -0.2-1.0-1.4
2014-Apr-15 02:00N 60°24' W 177°00'0 0.0 110 / 19997.7 -0.0-1.1-1.4
2014-Apr-15 00:00N 60°24' W 177°00'8 4.2 100 / 16998.3 1.0 0.1-1.4
2014-Apr-14 22:00N 60°18' W 177°12'7 6.7 130 / 13997.9 -0.1-0.9-1.3
2014-Apr-14 21:00N 60°12' W 177°18'7 3.3 140 / 12997.7 5.435.0 2.3 0.4-1.2
2014-Apr-14 19:00N 60°18' W 177°24'7 2.2 140 / 12996.6 0.2-0.5-1.4
2014-Apr-14 16:00N 60°12' W 177°30'7 3.4 150 / 16995.0 0.4-0.5-0.2
2014-Apr-14 14:00N 60°06' W 177°24'0 0.0 130 / 11994.5 0.4-0.6-0.2
2014-Apr-14 12:00N 60°06' W 177°24'0 0.0 140 / 10994.2 0.1-0.7-0.2
2014-Apr-14 11:00N 60°06' W 177°24'6 3.0 150 / 13993.9 0.2-0.5-0.3
2014-Apr-14 09:00N 60°06' W 177°12'7 2.2 150 / 14993.4 -0.0-0.9-0.6
2014-Apr-14 06:00N 60°12' W 177°06'3 3.0 130 / 16992.4 -0.0-1.1-1.1
2014-Apr-14 05:00N 60°12' W 177°00'0 0.0 120 / 16991.9 0.2-1.1-1.4
2014-Apr-14 04:00N 60°12' W 177°00'0 0.0 140 / 17991.6 0.2-1.1-1.4
2014-Apr-14 03:00N 60°12' W 177°00'7 3.3 130 / 18991.4 0.1-1.2-1.2
2014-Apr-14 01:00N 60°18' W 176°54'0 0.0 140 / 6991.2 0.4-1.0-1.2
2014-Apr-14 00:00N 60°18' W 176°54'6 6.0 140 / 18990.8 0.5-0.8-1.2
2014-Apr-13 23:00N 60°12' W 176°54'0 0.0 140 / 18990.3 -0.0-0.7-1.2
2014-Apr-13 22:00N 60°12' W 176°54'3 3.0 150 / 16989.9 0.1-0.3-1.2
2014-Apr-13 21:00N 60°12' W 177°00'3 1.5 130 / 16989.3 0.3-0.0-1.2
2014-Apr-13 19:00N 60°12' W 176°54'7 6.7 150 / 18987.8 -0.1-0.2-1.0
2014-Apr-13 18:00N 60°06' W 177°00'6 6.0 150 / 16986.9 0.1-0.0-0.7
2014-Apr-13 17:00N 60°06' W 177°12'6 6.0 160 / 16986.3 0.1-0.0-0.1
2014-Apr-13 16:00N 60°00' W 177°12'7 2.2 130 / 10986.2 -0.2-0.3 0.1
2014-Apr-13 13:00N 59°54' W 177°06'3 3.0 060 / 12986.7 -1.1-1.4 0.6
2014-Apr-13 12:00N 59°54' W 177°12'7 3.4 360 / 14986.9 1.1 0.5-1.1-1.3-1.1
2014-Apr-13 10:00N 60°00' W 177°18'3 3.0 040 / 17988.0 -0.7-1.1 0.4
2014-Apr-13 09:00N 60°00' W 177°12'7 6.7 030 / 18988.1 -0.7-1.2 0.3
2014-Apr-13 08:00N 60°06' W 177°18'19 3.8 020 / 20988.2 -1.1-1.6-0.1
2014-Apr-13 03:00N 60°18' W 177°48'7 6.7 020 / 31992.5 2.2 0.5-3.9-5.1 0.2
2014-Apr-13 02:00N 60°24' W 177°54'0 0.0 030 / 31993.9 -4.4-5.8-0.1
2014-Apr-13 01:00N 60°24' W 177°54'6 6.0 020 / 33995.2 -4.7-6.1-0.1
2014-Apr-13 00:00N 60°30' W 177°54'7 3.3 030 / 29996.5 -5.4-6.9-0.4
2014-Apr-12 22:00N 60°24' W 177°48'7 6.7 030 / 31998.8 -6.0-7.7-0.6
2014-Apr-12 21:00N 60°30' W 177°42'6 3.0 020 / 281000.0 -5.2-8.6-0.7
2014-Apr-12 19:00N 60°24' W 177°42'0 0.0 030 / 271001.0 -6.1-10.5-0.4
2014-Apr-12 18:00N 60°24' W 177°42'7 3.3 030 / 281001.7 -5.4-10.8 0.1
2014-Apr-12 16:00N 60°18' W 177°48'3 3.0 030 / 251003.8 -3.6-7.9 0.4
2014-Apr-12 15:00N 60°18' W 177°54'7 6.7 030 / 241004.7 -3.6-7.3 0.4
2014-Apr-12 14:00N 60°24' W 178°00'0 0.0 030 / 251005.8 -3.8-6.8 0.2
2014-Apr-12 13:00N 60°24' W 178°00'7 2.2 030 / 221007.2 -4.0-6.7 0.3
2014-Apr-12 10:00N 60°30' W 178°06'3 3.0 040 / 231010.3 -3.8-6.1-0.2
2014-Apr-12 09:00N 60°30' W 178°00'6 3.0 050 / 211011.3 5.4 0.5-2.4-4.9-0.4
2014-Apr-12 07:00N 60°36' W 178°00'6 6.0 050 / 161012.4 -1.9-4.1-0.9
2014-Apr-12 06:00N 60°42' W 178°00'3 2.9 080 / 161012.7 -1.6-3.5-0.9
2014-Apr-12 05:00N 60°42' W 177°54'7 1.7 070 / 161012.6 -1.6-3.1-1.1
2014-Apr-12 01:00N 60°36' W 177°48'0 0.0 070 / 131013.8 -1.4-2.3-0.9
2014-Apr-12 00:00N 60°36' W 177°48'0 0.0 070 / 141014.1 -1.4-2.2-1.1
2014-Apr-11 23:00N 60°36' W 177°48'6 1.5 070 / 151013.9 -1.8-2.5-1.1
2014-Apr-11 19:00N 60°30' W 177°48'12 4.1 070 / 191013.3 -3.3-4.0-0.9
2014-Apr-11 16:00N 60°18' W 177°42'1212.4 070 / 221011.6 -3.0-3.6 0.5
2014-Apr-11 15:00N 60°06' W 177°36'3 1.5 080 / 231011.3 2.2 1.0-2.6-3.4 0.5
2014-Apr-11 13:00N 60°06' W 177°30'3 3.0 050 / 221011.6 -2.6-3.5-0.2
2014-Apr-11 12:00N 60°06' W 177°24'6 3.0 020 / 181011.7 5.4 0.5-1.5-3.1-0.2
2014-Apr-11 10:00N 60°12' W 177°24'0 0.0 060 / 191011.8 -2.8-4.9-0.3
2014-Apr-11 08:00N 60°12' W 177°24'0 0.0 060 / 211011.7 -3.3-5.9-0.5
2014-Apr-11 07:00N 60°12' W 177°24'3 3.0 070 / 221011.3 -3.3-5.9-0.7
2014-Apr-11 06:00N 60°12' W 177°18'6 3.0 070 / 211010.8 5.4 0.5-3.3-6.4-0.7
2014-Apr-11 04:00N 60°18' W 177°18'6 6.0 070 / 191010.9 -2.5-5.5-1.2
2014-Apr-11 03:00N 60°24' W 177°18'6 6.0 080 / 181010.5 -2.9-5.8-1.2
2014-Apr-11 02:00N 60°18' W 177°18'6 1.2 090 / 181010.7 -2.3-5.9-1.2
2014-Apr-10 21:00N 60°18' W 177°06'6 2.0 100 / 141009.4 5.4 0.5-1.5-2.9-1.6
2014-Apr-10 18:00N 60°12' W 177°06'3 3.0 110 / 181007.8 5.436.0-1.8-2.4-1.4
2014-Apr-10 17:00N 60°12' W 177°12'6 3.0 110 / 171006.7 -0.8-1.4-0.6
2014-Apr-10 15:00N 60°06' W 177°12'3 3.0 130 / 201005.7 5.4 1.0 1.0-0.9-0.4
2014-Apr-10 14:00N 60°06' W 177°18'3 1.5 130 / 151005.5 -0.1-0.4-0.4
2014-Apr-10 12:00N 60°06' W 177°12'3 1.5 110 / 171005.1 1.1 1.0 1.5-0.2-0.4
2014-Apr-10 10:00N 60°06' W 177°18'3 3.0 110 / 181004.6 -0.4-0.6-0.5
2014-Apr-10 09:00N 60°06' W 177°12'6 3.0 120 / 161004.3 2.2 0.5-0.5-0.8-0.6
2014-Apr-10 07:00N 60°12' W 177°12'6 3.0 090 / 171003.3 -1.4-1.8-0.7
2014-Apr-10 05:00N 60°18' W 177°12'0 0.0 080 / 201003.0 -2.7-3.5-1.4
2014-Apr-10 04:00N 60°18' W 177°12'0 0.0 080 / 211003.5 -3.1-4.1-1.4
2014-Apr-10 03:00N 60°18' W 177°12'3 3.0 080 / 191004.0 -3.5-4.8-1.6
2014-Apr-10 02:00N 60°18' W 177°06'6 6.0 090 / 211004.2 -3.4-5.0-1.4
2014-Apr-10 01:00N 60°12' W 177°06'3 3.0 090 / 221004.4 -3.6-5.3-1.2
2014-Apr-10 00:00N 60°12' W 177°00'0 0.0 100 / 211004.8 5.4 0.5-3.8-5.5-1.2
2014-Apr-09 23:00N 60°12' W 177°00'3 1.0 080 / 221005.2 -3.8-5.6-1.3
2014-Apr-09 20:00N 60°12' W 176°54'7 3.4 100 / 201006.2 -4.8-6.8-1.6
2014-Apr-09 18:00N 60°06' W 176°48'3 1.5 100 / 221005.5 -4.8-6.9-1.4
2014-Apr-09 16:00N 60°06' W 176°42'43 6.2 090 / 151005.5 -5.4-7.7-1.6
2014-Apr-09 09:00N 59°30' W 175°54'2512.6 100 / 201006.4 -4.5-8.1-0.1
2014-Apr-09 07:00N 59°24' W 175°06'306306.3 090 / 261006.2 -4.6-8.2 0.1
2014-Apr-09 06:00N 54°18' W 174°42'295147.6 090 / 251005.8 5.4 -4.9-9.0-0.5
2014-Apr-09 04:00N 59°12' W 173°54'25 8.4 090 / 251006.0 -4.6-9.4-0.7
2014-Apr-09 01:00N 59°06' W 173°06'6 6.2 090 / 271006.2 -4.4-9.2-1.1
2014-Apr-09 00:00N 59°06' W 172°54'7 3.4 090 / 271006.6 -4.7-8.9-1.6
2014-Apr-08 22:00N 59°00' W 172°48'6 6.0 100 / 261006.4 -5.7-9.9-1.2
2014-Apr-08 21:00N 58°54' W 172°48'6 6.0 100 / 261006.3 -5.5-9.0-0.8
2014-Apr-08 20:00N 58°48' W 172°48'39 9.9 100 / 301005.4 -5.9-9.3-0.7
2014-Apr-08 16:00N 58°24' W 171°48'9 8.7 100 / 261005.0 -5.5-8.9-0.4
2014-Apr-08 15:00N 58°18' W 171°36'3 3.2 100 / 111004.8 -5.8-10.0-1.0
2014-Apr-08 14:00N 58°18' W 171°30'14 7.0 090 / 261005.6 -5.6-9.1-1.1
2014-Apr-08 12:00N 58°12' W 171°06'7 6.8 080 / 261006.3 -5.9-9.6-1.2
2014-Apr-08 11:00N 58°06' W 171°00'49 9.8 090 / 261006.5 -5.6-9.5-1.2
2014-Apr-08 06:00N 57°54' W 169°30'2311.3 090 / 141009.8 -5.2-10.2 0.2
2014-Apr-08 04:00N 58°06' W 168°54'9 8.7 070 / 151010.8 -5.2-9.7-0.6
2014-Apr-08 03:00N 58°12' W 168°42'9 4.4 060 / 101011.8 -5.4-10.5-0.7
2014-Apr-08 01:00N 58°18' W 168°30'16 5.3 050 / 91012.6 -6.2-11.5-1.2
2014-Apr-07 22:00N 58°18' W 168°00'3 3.2 050 / 91013.4 -7.3-11.1-1.2
2014-Apr-07 21:00N 58°18' W 167°54'9 4.4 030 / 101013.3 5.4 0.5-7.2-10.6-1.1
2014-Apr-07 19:00N 58°12' W 167°42'6 6.0 010 / 101013.5 -7.2-10.7-0.8
2014-Apr-07 18:00N 58°06' W 167°42'   020 / 121013.1 5.4 1.0-7.2-10.8-0.6

Dump ship's entire track history

sailing weather and tide predictions

Oscar Dyson — WTEP — position and weather